| time (UTC) | temp C | wind direction | speed KPH | gust KPH | rain 1hr cm | rain 24hr cm | rain mn cm | humidity % | barometer mb |
| 20260503200832 | 15 | 234 | 3.2 | 11.3 | 0.00 | 0.00 | 0.00 | 50 | 1012.2 |
| 20260503200321 | 15 | 236 | 3.2 | 16.1 | 0.00 | 0.00 | 0.00 | 51 | 1012.5 |
| 20260503195828 | 15 | 225 | 8.0 | 22.5 | 0.00 | 0.00 | 0.00 | 49 | 1012.7 |
| 20260503195335 | 15 | 173 | 9.7 | 19.3 | 0.00 | 0.00 | 0.00 | 48 | 1012.8 |
| 20260503194841 | 15 | 212 | 4.8 | 17.7 | 0.00 | 0.00 | 0.00 | 49 | 1013.2 |
| 20260503194327 | 15 | 245 | 8.0 | 22.5 | 0.00 | 0.00 | 0.00 | 48 | 1013.4 |
| 20260503193853 | 15 | 253 | 8.0 | 22.5 | 0.00 | 0.00 | 0.00 | 48 | 1013.6 |
| 20260503193317 | 15 | 179 | 3.2 | 22.5 | 0.00 | 0.00 | 0.00 | 49 | 1013.7 |
| 20260503192824 | 15 | 262 | 1.6 | 17.7 | 0.00 | 0.00 | 0.00 | 49 | 1013.6 |
| 20260503192332 | 15 | 205 | 6.4 | 12.9 | 0.00 | 0.00 | 0.00 | 50 | 1013.3 |
| 20260503191821 | 15 | 173 | 3.2 | 16.1 | 0.00 | 0.00 | 0.00 | 48 | 1013.5 |
| 20260503191348 | 15 | 195 | 3.2 | 22.5 | 0.00 | 0.00 | 0.00 | 48 | 1013.5 |
| 20260503190835 | 15 | 264 | 9.7 | 22.5 | 0.00 | 0.00 | 0.00 | 48 | 1013.5 |
| 20260503190322 | 15 | 262 | 8.0 | 17.7 | 0.00 | 0.00 | 0.00 | 47 | 1013.4 |
| 20260503185828 | 16 | 239 | 6.4 | 17.7 | 0.00 | 0.00 | 0.00 | 47 | 1013.4 |
| 20260503185335 | 16 | 207 | 6.4 | 29.0 | 0.00 | 0.00 | 0.00 | 49 | 1013.4 |
| 20260503184824 | 16 | 221 | 11.3 | 29.0 | 0.00 | 0.00 | 0.00 | 45 | 1013.5 |
| 20260503184356 | 16 | 221 | 1.6 | 19.3 | 0.00 | 0.00 | 0.00 | 51 | 1013.7 |
| 20260503183843 | 16 | 266 | 4.8 | 19.3 | 0.00 | 0.00 | 0.00 | 47 | 1013.8 |
| 20260503183332 | 15 | 158 | 3.2 | 16.1 | 0.00 | 0.00 | 0.00 | 50 | 1014.1 |
| 20260503182820 | 15 | 229 | 8.0 | 16.1 | 0.00 | 0.00 | 0.00 | 46 | 1014.3 |
| 20260503182323 | 15 | 184 | 3.2 | 20.9 | 0.00 | 0.00 | 0.00 | 50 | 1014.2 |
| 20260503181830 | 14 | 233 | 9.7 | 22.5 | 0.00 | 0.00 | 0.00 | 47 | 1014.5 |
| 20260503181319 | 14 | 224 | 4.8 | 22.5 | 0.00 | 0.00 | 0.00 | 49 | 1014.6 |
| 20260503180829 | 14 | 250 | 3.2 | 12.9 | 0.00 | 0.00 | 0.00 | 48 | 1014.7 |
| 20260503180318 | 14 | 265 | 1.6 | 19.3 | 0.00 | 0.00 | 0.00 | 47 | 1014.8 |
| 20260503175826 | 14 | 252 | 8.0 | 25.7 | 0.00 | 0.00 | 0.00 | 46 | 1014.9 |
| 20260503175332 | 15 | 258 | 14.5 | 25.7 | 0.00 | 0.00 | 0.00 | 45 | 1014.8 |
| 20260503174821 | 15 | 252 | 3.2 | 22.5 | 0.00 | 0.00 | 0.00 | 45 | 1014.9 |
| 20260503174326 | 15 | 240 | 8.0 | 30.6 | 0.00 | 0.00 | 0.00 | 46 | 1015.1 |
| 20260503173834 | 15 | 269 | 14.5 | 30.6 | 0.00 | 0.00 | 0.00 | 43 | 1015.3 |
| 20260503173323 | 15 | 239 | 8.0 | 20.9 | 0.00 | 0.00 | 0.00 | 44 | 1015.2 |
| 20260503172321 | 15 | 236 | 4.8 | 22.5 | 0.00 | 0.00 | 0.00 | 49 | 1015.2 |
| 20260503171831 | 15 | 222 | 9.7 | 22.5 | 0.00 | 0.00 | 0.00 | 45 | 1015.4 |
| 20260503171320 | 15 | 275 | 9.7 | 24.1 | 0.00 | 0.00 | 0.00 | 45 | 1015.4 |
| 20260503170828 | 15 | 241 | 9.7 | 24.1 | 0.00 | 0.00 | 0.00 | 43 | 1015.5 |
| 20260503170332 | 15 | 231 | 6.4 | 22.5 | 0.00 | 0.00 | 0.00 | 45 | 1015.4 |
| 20260503150825 | 13 | 255 | 9.7 | 24.1 | 0.00 | 0.00 | 0.00 | 49 | 1016.6 |
| 20260503150332 | 12 | 262 | 3.2 | 22.5 | 0.00 | 0.00 | 0.00 | 55 | 1016.6 |
| 20260503131330 | 9 | 245 | 3.2 | 19.3 | 0.00 | 0.00 | 0.00 | 59 | 1017.1 |
| 20260503130853 | 9 | 233 | 4.8 | 14.5 | 0.00 | 0.00 | 0.00 | 59 | 1017.0 |
| 20260503130319 | 9 | 214 | 3.2 | 14.5 | 0.00 | 0.00 | 0.00 | 59 | 1017.0 |
| 20260503110823 | 3 | 214 | 0.0 | 0.0 | 0.00 | 0.00 | 0.00 | 74 | 1016.6 |
| 20260503110328 | 3 | 212 | 0.0 | 0.0 | 0.00 | 0.00 | 0.00 | 74 | 1016.7 |
| 20260503090336 | 3 | 236 | 0.0 | 0.0 | 0.00 | 0.00 | 0.00 | 75 | 1016.1 |
| 20260503081351 | 3 | 217 | 0.0 | 0.0 | 0.00 | 0.00 | 0.00 | 76 | 1016.1 |
| 20260503080838 | 3 | 227 | 0.0 | 0.0 | 0.00 | 0.00 | 0.00 | 77 | 1016.1 |
| 20260503080319 | 3 | 214 | 0.0 | 0.0 | 0.00 | 0.00 | 0.00 | 77 | 1016.1 |
| 20260503072819 | 3 | 242 | 0.0 | 0.0 | 0.00 | 0.00 | 0.00 | 80 | 1016.1 |
| 20260503072328 | 3 | 243 | 0.0 | 0.0 | 0.00 | 0.00 | 0.00 | 81 | 1016.1 |
| 20260503071816 | 2 | 243 | 0.0 | 0.0 | 0.00 | 0.00 | 0.00 | 82 | 1016.2 |
| 20260503071323 | 2 | 291 | 0.0 | 0.0 | 0.00 | 0.00 | 0.00 | 83 | 1016.1 |
| 20260503070852 | 2 | 291 | 0.0 | 0.0 | 0.00 | 0.00 | 0.00 | 83 | 1016.2 |
| 20260503070319 | 3 | 291 | 0.0 | 0.0 | 0.00 | 0.00 | 0.00 | 83 | 1016.1 |
| 20260503054833 | 2 | 291 | 0.0 | 0.0 | 0.00 | 0.00 | 0.00 | 86 | 1016.6 |
| 20260503054321 | 2 | 291 | 0.0 | 0.0 | 0.00 | 0.00 | 0.00 | 86 | 1016.6 |
| 20260503053832 | 2 | 291 | 0.0 | 0.0 | 0.00 | 0.00 | 0.00 | 86 | 1016.6 |
| 20260503053321 | 2 | 291 | 0.0 | 0.0 | 0.00 | 0.00 | 0.00 | 87 | 1016.7 |
| 20260503052830 | 2 | 291 | 0.0 | 0.0 | 0.00 | 0.00 | 0.00 | 86 | 1016.7 |
| 20260503052321 | 2 | 291 | 0.0 | 0.0 | 0.00 | 0.00 | 0.00 | 85 | 1016.8 |
| 20260503051829 | 2 | 291 | 0.0 | 0.0 | 0.00 | 0.00 | 0.00 | 85 | 1016.9 |
| 20260503051333 | 2 | 291 | 0.0 | 0.0 | 0.00 | 0.00 | 0.00 | 85 | 1016.7 |
| 20260503050821 | 2 | 291 | 0.0 | 0.0 | 0.00 | 0.00 | 0.00 | 86 | 1016.8 |
| 20260503050331 | 2 | 291 | 0.0 | 0.0 | 0.00 | 0.00 | 0.00 | 85 | 1016.7 |
| 20260503045820 | 3 | 291 | 0.0 | 0.0 | 0.00 | 0.00 | 0.00 | 86 | 1016.7 |
| 20260503045327 | 3 | 291 | 0.0 | 0.0 | 0.00 | 0.00 | 0.00 | 85 | 1016.7 |
| 20260503044835 | 3 | 292 | 0.0 | 0.0 | 0.00 | 0.00 | 0.00 | 86 | 1016.8 |
| 20260503044323 | 3 | 292 | 0.0 | 0.0 | 0.00 | 0.00 | 0.00 | 85 | 1016.7 |
| 20260503043832 | 3 | 292 | 0.0 | 0.0 | 0.00 | 0.00 | 0.00 | 86 | 1016.7 |
| 20260503043342 | 3 | 292 | 0.0 | 0.0 | 0.00 | 0.00 | 0.00 | 88 | 1016.7 |
| 20260503042828 | 3 | 292 | 0.0 | 0.0 | 0.00 | 0.00 | 0.00 | 87 | 1016.7 |
| 20260503042333 | 3 | 292 | 0.0 | 0.0 | 0.00 | 0.00 | 0.00 | 87 | 1016.6 |
| 20260503041821 | 3 | 292 | 0.0 | 0.0 | 0.00 | 0.00 | 0.00 | 85 | 1016.7 |
| 20260503041330 | 3 | 292 | 0.0 | 0.0 | 0.00 | 0.00 | 0.00 | 84 | 1016.6 |
| 20260503040818 | 3 | 292 | 0.0 | 0.0 | 0.00 | 0.00 | 0.00 | 84 | 1016.6 |
| 20260503040327 | 3 | 292 | 0.0 | 0.0 | 0.00 | 0.00 | 0.00 | 84 | 1016.6 |
| 20260503035832 | 3 | 292 | 0.0 | 0.0 | 0.00 | 0.00 | 0.00 | 83 | 1016.6 |
| 20260503035320 | 3 | 292 | 0.0 | 0.0 | 0.00 | 0.00 | 0.00 | 83 | 1016.6 |
| 20260503034832 | 3 | 292 | 0.0 | 0.0 | 0.00 | 0.00 | 0.00 | 84 | 1016.7 |
| 20260503034342 | 3 | 292 | 0.0 | 0.0 | 0.00 | 0.00 | 0.00 | 83 | 1016.6 |
| 20260503033827 | 3 | 292 | 0.0 | 0.0 | 0.00 | 0.00 | 0.00 | 85 | 1016.8 |
| 20260503033335 | 3 | 292 | 0.0 | 0.0 | 0.00 | 0.00 | 0.00 | 84 | 1016.7 |
| 20260503032825 | 3 | 292 | 0.0 | 0.0 | 0.00 | 0.00 | 0.00 | 81 | 1016.7 |
| 20260503032335 | 3 | 293 | 0.0 | 0.0 | 0.00 | 0.00 | 0.00 | 80 | 1016.8 |
| 20260503031827 | 3 | 293 | 0.0 | 0.0 | 0.00 | 0.00 | 0.00 | 80 | 1016.8 |
| 20260503031335 | 3 | 293 | 0.0 | 0.0 | 0.00 | 0.00 | 0.00 | 80 | 1016.8 |
| 20260503030823 | 3 | 293 | 0.0 | 0.0 | 0.00 | 0.00 | 0.00 | 79 | 1016.8 |
| 20260503030331 | 3 | 293 | 0.0 | 0.0 | 0.00 | 0.00 | 0.00 | 77 | 1016.9 |
| 20260503025841 | 3 | 293 | 0.0 | 0.0 | 0.00 | 0.00 | 0.00 | 77 | 1016.9 |
| 20260503025328 | 4 | 293 | 0.0 | 0.0 | 0.00 | 0.00 | 0.00 | 78 | 1016.9 |
| 20260503024819 | 4 | 293 | 0.0 | 0.0 | 0.00 | 0.00 | 0.00 | 78 | 1016.9 |
| 20260503024326 | 4 | 293 | 0.0 | 0.0 | 0.00 | 0.00 | 0.00 | 78 | 1016.9 |
| 20260503023833 | 5 | 293 | 0.0 | 0.0 | 0.00 | 0.00 | 0.00 | 79 | 1016.9 |
| 20260503023323 | 5 | 293 | 0.0 | 0.0 | 0.00 | 0.00 | 0.00 | 78 | 1016.8 |
| 20260503022830 | 5 | 293 | 0.0 | 0.0 | 0.00 | 0.00 | 0.00 | 77 | 1016.8 |
| 20260503022317 | 5 | 293 | 0.0 | 0.0 | 0.00 | 0.00 | 0.00 | 76 | 1016.8 |
| 20260503021824 | 5 | 293 | 0.0 | 0.0 | 0.00 | 0.00 | 0.00 | 75 | 1016.7 |
| 20260503021351 | 5 | 293 | 0.0 | 0.0 | 0.00 | 0.00 | 0.00 | 74 | 1016.7 |
| 20260503020821 | 5 | 293 | 0.0 | 0.0 | 0.00 | 0.00 | 0.00 | 75 | 1016.7 |
| 20260503020357 | 5 | 293 | 0.0 | 0.0 | 0.00 | 0.00 | 0.00 | 74 | 1016.7 |
| 20260503015824 | 5 | 293 | 0.0 | 0.0 | 0.00 | 0.00 | 0.00 | 70 | 1016.6 |
| 20260503015333 | 6 | 293 | 0.0 | 0.0 | 0.00 | 0.00 | 0.00 | 66 | 1016.6 |
| 20260503014843 | 6 | 293 | 0.0 | 0.0 | 0.00 | 0.00 | 0.00 | 66 | 1016.5 |
| 20260503014352 | 6 | 293 | 0.0 | 0.0 | 0.00 | 0.00 | 0.00 | 68 | 1016.4 |
| 20260503013819 | 6 | 297 | 0.0 | 0.0 | 0.00 | 0.00 | 0.00 | 64 | 1016.4 |
| 20260503013328 | 7 | 297 | 0.0 | 0.0 | 0.00 | 0.00 | 0.00 | 63 | 1016.4 |
| 20260503012833 | 7 | 294 | 0.0 | 0.0 | 0.00 | 0.00 | 0.00 | 63 | 1016.4 |
| 20260503012323 | 7 | 294 | 0.0 | 0.0 | 0.00 | 0.00 | 0.00 | 61 | 1016.4 |
| 20260503011834 | 8 | 294 | 0.0 | 0.0 | 0.00 | 0.00 | 0.00 | 60 | 1016.4 |
| 20260503011321 | 8 | 295 | 0.0 | 0.0 | 0.00 | 0.00 | 0.00 | 56 | 1016.1 |
| 20260503010829 | 8 | 295 | 0.0 | 0.0 | 0.00 | 0.00 | 0.00 | 55 | 1016.2 |
| 20260503010316 | 8 | 297 | 0.0 | 0.0 | 0.00 | 0.00 | 0.00 | 59 | 1016.1 |
| 20260503005823 | 8 | 295 | 0.0 | 0.0 | 0.00 | 0.00 | 0.00 | 55 | 1016.1 |
| 20260503005332 | 8 | 295 | 0.0 | 0.0 | 0.00 | 0.00 | 0.00 | 51 | 1016.1 |
| 20260503004821 | 9 | 293 | 0.0 | 0.0 | 0.00 | 0.00 | 0.00 | 52 | 1016.2 |
| 20260503004331 | 9 | 293 | 0.0 | 0.0 | 0.00 | 0.00 | 0.00 | 50 | 1016.1 |
| 20260503003823 | 9 | 322 | 0.0 | 3.2 | 0.00 | 0.00 | 0.00 | 48 | 1016.1 |
| 20260503003357 | 10 | 311 | 0.0 | 4.8 | 0.00 | 0.00 | 0.00 | 47 | 1016.0 |
| 20260503002842 | 10 | 273 | 0.0 | 4.8 | 0.00 | 0.00 | 0.00 | 46 | 1016.1 |
| 20260503002328 | 10 | 328 | 0.0 | 9.7 | 0.00 | 0.00 | 0.00 | 48 | 1016.0 |
| 20260503001816 | 10 | 327 | 1.6 | 9.7 | 0.00 | 0.00 | 0.00 | 45 | 1016.0 |
| 20260503001351 | 10 | 330 | 1.6 | 8.0 | 0.00 | 0.00 | 0.00 | 47 | 1016.0 |
| 20260503000819 | 10 | 292 | 1.6 | 8.0 | 0.00 | 0.00 | 0.00 | 46 | 1016.0 |
| 20260503000327 | 10 | 31 | 4.8 | 8.0 | 0.00 | 0.00 | 0.00 | 48 | 1015.9 |
| 20260502235830 | 10 | 22 | 1.6 | 9.7 | 0.00 | 0.00 | 0.00 | 45 | 1015.8 |
| 20260502235318 | 10 | 23 | 0.0 | 11.3 | 0.00 | 0.00 | 0.00 | 47 | 1015.8 |
| 20260502234826 | 10 | 23 | 6.4 | 12.9 | 0.00 | 0.00 | 0.00 | 45 | 1015.8 |
| 20260502234337 | 10 | 41 | 8.0 | 12.9 | 0.00 | 0.00 | 0.00 | 46 | 1015.8 |
| 20260502233826 | 10 | 36 | 6.4 | 14.5 | 0.00 | 0.00 | 0.00 | 44 | 1015.8 |
| 20260502233334 | 10 | 18 | 4.8 | 14.5 | 0.00 | 0.00 | 0.00 | 46 | 1015.7 |
| 20260502232821 | 11 | 313 | 3.2 | 17.7 | 0.00 | 0.00 | 0.00 | 44 | 1015.9 |
| 20260502232327 | 11 | 29 | 8.0 | 17.7 | 0.00 | 0.00 | 0.00 | 46 | 1015.8 |
| 20260502231816 | 11 | 3 | 3.2 | 8.0 | 0.00 | 0.00 | 0.00 | 44 | 1015.8 |
| 20260502231350 | 11 | 323 | 1.6 | 11.3 | 0.00 | 0.00 | 0.00 | 46 | 1015.9 |
| 20260502230836 | 10 | 6 | 1.6 | 14.5 | 0.00 | 0.00 | 0.00 | 48 | 1015.9 |
| 20260502230324 | 10 | 330 | 1.6 | 14.5 | 0.00 | 0.00 | 0.00 | 48 | 1015.9 |
| 20260502225832 | 10 | 341 | 0.0 | 6.4 | 0.00 | 0.00 | 0.00 | 48 | 1015.9 |
| 20260502225321 | 10 | 321 | 1.6 | 17.7 | 0.00 | 0.00 | 0.00 | 47 | 1015.9 |
| 20260502224859 | 11 | 18 | 9.7 | 22.5 | 0.00 | 0.00 | 0.00 | 48 | 1015.9 |
| 20260502224324 | 11 | 6 | 8.0 | 22.5 | 0.00 | 0.00 | 0.00 | 49 | 1015.9 |
| 20260502223850 | 11 | 346 | 8.0 | 19.3 | 0.00 | 0.00 | 0.00 | 45 | 1015.9 |
| 20260502223318 | 11 | 24 | 3.2 | 14.5 | 0.00 | 0.00 | 0.00 | 46 | 1015.9 |
| 20260502222828 | 10 | 10 | 1.6 | 14.5 | 0.00 | 0.00 | 0.00 | 46 | 1016.0 |
| 20260502222316 | 10 | 6 | 6.4 | 16.1 | 0.00 | 0.00 | 0.00 | 47 | 1016.0 |
| 20260502221825 | 11 | 330 | 4.8 | 16.1 | 0.00 | 0.00 | 0.00 | 48 | 1016.0 |
| 20260502221332 | 11 | 328 | 8.0 | 14.5 | 0.00 | 0.00 | 0.00 | 47 | 1015.9 |
| 20260502220840 | 10 | 299 | 0.0 | 8.0 | 0.00 | 0.00 | 0.00 | 46 | 1015.8 |
| 20260502220326 | 10 | 319 | 1.6 | 9.7 | 0.00 | 0.00 | 0.00 | 46 | 1015.9 |
| 20260502215835 | 10 | 281 | 3.2 | 16.1 | 0.00 | 0.00 | 0.00 | 47 | 1015.9 |
| 20260502215322 | 10 | 313 | 4.8 | 16.1 | 0.00 | 0.00 | 0.00 | 48 | 1015.9 |
| 20260502214829 | 10 | 50 | 3.2 | 14.5 | 0.00 | 0.00 | 0.00 | 48 | 1015.9 |
| 20260502214337 | 10 | 355 | 1.6 | 16.1 | 0.00 | 0.00 | 0.00 | 49 | 1015.9 |
| 20260502213825 | 11 | 288 | 6.4 | 16.1 | 0.00 | 0.00 | 0.00 | 45 | 1016.1 |
| 20260502213335 | 11 | 310 | 4.8 | 16.1 | 0.00 | 0.00 | 0.00 | 46 | 1015.9 |
| 20260502212823 | 10 | 314 | 1.6 | 17.7 | 0.00 | 0.00 | 0.00 | 49 | 1015.9 |
| 20260502212332 | 10 | 331 | 4.8 | 24.1 | 0.00 | 0.00 | 0.00 | 45 | 1016.0 |
| 20260502211821 | 11 | 323 | 8.0 | 24.1 | 0.00 | 0.00 | 0.00 | 47 | 1015.8 |
| 20260502211329 | 11 | 296 | 11.3 | 19.3 | 0.00 | 0.00 | 0.00 | 46 | 1015.9 |
| 20260502210837 | 11 | 35 | 1.6 | 17.7 | 0.00 | 0.00 | 0.00 | 46 | 1015.8 |
| 20260502210325 | 11 | 319 | 9.7 | 20.9 | 0.00 | 0.00 | 0.00 | 46 | 1015.9 |
| 20260502205829 | 11 | 317 | 4.8 | 20.9 | 0.00 | 0.00 | 0.00 | 48 | 1015.7 |
| 20260502205335 | 11 | 314 | 3.2 | 16.1 | 0.00 | 0.00 | 0.00 | 45 | 1015.8 |
| 20260502204841 | 11 | 296 | 6.4 | 22.5 | 0.00 | 0.00 | 0.00 | 44 | 1015.8 |
| 20260502204347 | 11 | 20 | 11.3 | 22.5 | 0.00 | 0.00 | 0.00 | 48 | 1015.8 |
| 20260502203856 | 11 | 333 | 4.8 | 20.9 | 0.00 | 0.00 | 0.00 | 50 | 1015.8 |
| 20260502203345 | 10 | 8 | 4.8 | 20.9 | 0.00 | 0.00 | 0.00 | 45 | 1015.9 |
| 20260502202815 | 11 | 25 | 8.0 | 20.9 | 0.00 | 0.00 | 0.00 | 46 | 1015.9 |
| 20260502202349 | 10 | 220 | 3.2 | 12.9 | 0.00 | 0.00 | 0.00 | 46 | 1015.9 |
| 20260502201837 | 10 | 302 | 3.2 | 19.3 | 0.00 | 0.00 | 0.00 | 48 | 1016.0 |
| 20260502201346 | 10 | 6 | 9.7 | 22.5 | 0.00 | 0.00 | 0.00 | 46 | 1016.1 |